createdAt,value
2016-08-11T00:00:10.210Z,76.77
2016-08-11T00:01:10.185Z,77.72
2016-08-11T00:02:10.159Z,77.72
2016-08-11T00:03:10.133Z,77.44
2016-08-11T00:04:10.105Z,77.44
2016-08-11T00:05:10.082Z,77.72
2016-08-11T00:06:10.057Z,77.62
2016-08-11T00:07:10.031Z,77.53
2016-08-11T00:08:10.005Z,77.62
2016-08-11T00:09:09.981Z,77.62
2016-08-11T00:10:09.955Z,77.62
2016-08-11T00:11:09.929Z,78.49
2016-08-11T00:12:09.904Z,78.2
2016-08-11T00:13:09.878Z,78.3
2016-08-11T00:14:09.854Z,78.2
2016-08-11T00:15:09.827Z,78.2
2016-08-11T00:16:09.803Z,78.49
2016-08-11T00:17:09.779Z,78.49
2016-08-11T00:18:09.756Z,78.2
2016-08-11T00:19:09.728Z,78.2
2016-08-11T00:20:09.702Z,78.2
2016-08-11T00:21:09.678Z,78.2
2016-08-11T00:22:09.658Z,78.2
2016-08-11T00:23:09.630Z,78.2
2016-08-11T00:24:09.603Z,78.2
2016-08-11T00:25:09.577Z,78.2
2016-08-11T00:26:09.552Z,78.3
2016-08-11T00:27:09.526Z,78.2
2016-08-11T00:28:09.501Z,77.91
2016-08-11T00:29:09.476Z,78.2
2016-08-11T00:30:09.450Z,78.1
2016-08-11T00:31:09.425Z,78.01
2016-08-11T00:32:09.400Z,78.1
2016-08-11T00:33:09.373Z,78.01
2016-08-11T00:34:09.348Z,78.01
2016-08-11T00:35:09.321Z,78.1
2016-08-11T00:36:09.295Z,78.01
2016-08-11T00:37:09.271Z,77.91
2016-08-11T00:38:09.247Z,77.91
2016-08-11T00:39:09.221Z,78.1
2016-08-11T00:40:09.193Z,78.01
2016-08-11T00:41:09.169Z,78.3
2016-08-11T00:42:09.141Z,77.91
2016-08-11T00:43:09.118Z,78.1
2016-08-11T00:44:09.092Z,77.91
2016-08-11T00:45:09.067Z,78.01
2016-08-11T00:46:09.040Z,77.97
2016-08-11T00:47:09.019Z,78.49
2016-08-11T00:48:08.990Z,77.91
2016-08-11T00:49:09.663Z,77.91
2016-08-11T00:50:08.937Z,77.91
2016-08-11T00:51:08.914Z,78.16
2016-08-11T00:52:08.888Z,78.25
2016-08-11T00:53:08.867Z,78.06
2016-08-11T00:54:08.836Z,78.1
2016-08-11T00:55:08.811Z,78.39
2016-08-11T00:56:08.784Z,78.3
2016-08-11T00:57:08.761Z,78.01
2016-08-11T00:58:08.736Z,78.25
2016-08-11T00:59:08.707Z,77.87
2016-08-11T01:00:08.684Z,77.87
2016-08-11T01:01:08.657Z,78.3
2016-08-11T01:02:08.635Z,78.06
2016-08-11T01:03:08.606Z,77.97
2016-08-11T01:04:08.581Z,78.06
2016-08-11T01:05:08.553Z,78.06
2016-08-11T01:06:08.529Z,78.06
2016-08-11T01:07:08.504Z,78.16
2016-08-11T01:08:08.478Z,77.87
2016-08-11T01:09:08.452Z,78.06
2016-08-11T01:10:08.426Z,77.97
2016-08-11T01:11:08.401Z,78.06
2016-08-11T01:12:08.424Z,77.87
2016-08-11T01:13:08.353Z,78.25
2016-08-11T01:14:08.322Z,77.87
2016-08-11T01:15:08.300Z,77.97
2016-08-11T01:16:08.278Z,78.25
2016-08-11T01:17:08.244Z,78.16
2016-08-11T01:18:08.227Z,78.44
2016-08-11T01:19:08.195Z,78.64
2016-08-11T01:20:08.176Z,78.64
2016-08-11T01:21:08.141Z,78.44
2016-08-11T01:22:08.117Z,78.54
2016-08-11T01:23:08.090Z,78.44
2016-08-11T01:24:08.072Z,79.02
2016-08-11T01:25:08.040Z,79.3
2016-08-11T01:26:08.015Z,79.21
2016-08-11T01:27:07.989Z,79.11
2016-08-11T01:28:07.963Z,79.02
2016-08-11T01:29:07.939Z,79.02
2016-08-11T01:30:07.913Z,79.02
2016-08-11T01:31:07.887Z,79.02
2016-08-11T01:32:07.862Z,79.11
2016-08-11T01:33:07.837Z,78.92
2016-08-11T01:34:07.813Z,78.83
2016-08-11T01:35:07.788Z,78.73
2016-08-11T01:36:07.757Z,78.73
2016-08-11T01:37:07.732Z,78.92
2016-08-11T01:38:07.706Z,78.73
2016-08-11T01:39:07.678Z,79.21
2016-08-11T01:40:07.656Z,79.21
2016-08-11T01:41:07.643Z,79.3
2016-08-11T01:42:07.603Z,79.21
2016-08-11T01:43:07.576Z,79.3
2016-08-11T01:44:07.549Z,78.92
2016-08-11T01:45:07.543Z,78.73
2016-08-11T01:46:07.501Z,79.02
2016-08-11T01:47:07.473Z,79.02
2016-08-11T01:48:07.447Z,79.21
2016-08-11T01:49:07.423Z,79.21
2016-08-11T01:50:07.397Z,78.92
2016-08-11T01:51:07.373Z,79.02
2016-08-11T01:52:07.345Z,78.92
2016-08-11T01:53:07.319Z,78.92
2016-08-11T01:54:07.294Z,78.92
2016-08-11T01:55:07.272Z,78.92
2016-08-11T01:56:07.244Z,78.83
2016-08-11T01:57:07.213Z,78.83
2016-08-11T01:58:07.196Z,78.92
2016-08-11T01:59:07.168Z,79.02
2016-08-11T02:00:07.188Z,78.83
2016-08-11T02:01:07.115Z,79.21
2016-08-11T02:02:07.087Z,78.92
2016-08-11T02:03:07.064Z,78.83
2016-08-11T02:04:07.035Z,79.11
2016-08-11T02:05:07.016Z,79.21
2016-08-11T02:06:06.982Z,79.11
2016-08-11T02:07:06.971Z,79.02
2016-08-11T02:08:06.934Z,79.11
2016-08-11T02:09:06.911Z,79.02
2016-08-11T02:10:06.882Z,78.92
2016-08-11T02:11:06.857Z,79.11
2016-08-11T02:12:06.829Z,79.11
2016-08-11T02:13:06.804Z,78.83
2016-08-11T02:14:06.779Z,78.92
2016-08-11T02:15:06.753Z,78.83
2016-08-11T02:16:06.726Z,79.02
2016-08-11T02:17:06.702Z,79.02
2016-08-11T02:18:06.678Z,79.21
2016-08-11T02:19:06.649Z,79.02
2016-08-11T02:20:06.629Z,79.11
2016-08-11T02:21:06.605Z,79.11
2016-08-11T02:22:06.573Z,79.02
2016-08-11T02:23:06.560Z,79.02
2016-08-11T02:24:06.519Z,79.02
2016-08-11T02:25:06.494Z,79.02
2016-08-11T02:26:06.472Z,79.02
2016-08-11T02:27:06.442Z,79.59
2016-08-11T02:28:06.415Z,78.83
2016-08-11T02:29:06.390Z,78.83
2016-08-11T02:30:06.364Z,79.02
2016-08-11T02:31:06.339Z,78.83
2016-08-11T02:32:06.313Z,79.02
2016-08-11T02:33:06.287Z,79.68
2016-08-11T02:34:06.261Z,79.59
2016-08-11T02:35:06.238Z,79.11
2016-08-11T02:36:06.212Z,79.59
2016-08-11T02:37:06.189Z,79.11
2016-08-11T02:38:06.157Z,79.11
2016-08-11T02:39:06.133Z,79.68
2016-08-11T02:40:06.106Z,78.83
2016-08-11T02:41:06.079Z,79.68
2016-08-11T02:42:06.052Z,79.68
2016-08-11T02:43:06.035Z,79.3
2016-08-11T02:44:06.004Z,79.4
2016-08-11T02:45:05.976Z,79.68
2016-08-11T02:46:05.952Z,79.68
2016-08-11T02:47:05.924Z,79.36
2016-08-11T02:48:05.898Z,79.49
2016-08-11T02:49:05.886Z,78.98
2016-08-11T02:50:05.847Z,79.4
2016-08-11T02:51:05.821Z,79.36
2016-08-11T02:52:05.795Z,79.3
2016-08-11T02:53:05.776Z,79.27
2016-08-11T02:54:05.745Z,79.27
2016-08-11T02:55:05.718Z,79.55
2016-08-11T02:56:05.690Z,79.55
2016-08-11T02:57:05.665Z,79.64
2016-08-11T02:58:05.641Z,79.46
2016-08-11T02:59:05.613Z,79.83
2016-08-11T03:00:05.587Z,79.46
2016-08-11T03:01:05.561Z,79.46
2016-08-11T03:02:05.535Z,79.46
2016-08-11T03:03:05.511Z,79.55
2016-08-11T03:04:05.481Z,79.74
2016-08-11T03:05:05.457Z,79.74
2016-08-11T03:06:05.445Z,79.93
2016-08-11T03:07:05.404Z,79.93
2016-08-11T03:08:05.378Z,79.64
2016-08-11T03:09:05.353Z,80.31
2016-08-11T03:10:05.325Z,80.02
2016-08-11T03:11:05.299Z,80.41
2016-08-11T03:12:05.272Z,80.22
2016-08-11T03:13:05.246Z,80.31
2016-08-11T03:14:05.219Z,80.02
2016-08-11T03:15:05.196Z,80.12
2016-08-11T03:16:05.171Z,80.31
2016-08-11T03:17:05.143Z,79.93
2016-08-11T03:18:05.116Z,80.02
2016-08-11T03:19:05.090Z,79.83
2016-08-11T03:20:05.063Z,79.93
2016-08-11T03:21:05.035Z,80.31
2016-08-11T03:22:05.012Z,80.6
2016-08-11T03:23:04.985Z,80.22
2016-08-11T03:24:04.961Z,80.41
2016-08-11T03:25:04.937Z,80.31
2016-08-11T03:26:04.924Z,80.41
2016-08-11T03:27:04.879Z,80.69
2016-08-11T03:28:04.857Z,80.31
2016-08-11T03:29:04.829Z,80.22
2016-08-11T03:30:04.811Z,80.41
2016-08-11T03:31:04.777Z,80.41
2016-08-11T03:32:04.750Z,80.41
2016-08-11T03:33:04.723Z,80.6
2016-08-11T03:34:04.699Z,80.12
2016-08-11T03:35:04.686Z,80.02
2016-08-11T03:36:04.645Z,80.22
2016-08-11T03:37:04.618Z,80.41
2016-08-11T03:38:04.593Z,80.31
2016-08-11T03:39:04.565Z,80.41
2016-08-11T03:40:04.542Z,80.69
2016-08-11T03:41:04.515Z,80.5
2016-08-11T03:42:04.489Z,80.69
2016-08-11T03:43:04.461Z,80.6
2016-08-11T03:44:04.435Z,80.5
2016-08-11T03:45:04.411Z,80.5
2016-08-11T03:46:04.385Z,80.6
2016-08-11T03:47:04.359Z,81.17
2016-08-11T03:48:04.329Z,81.07
2016-08-11T03:49:04.306Z,81.17
2016-08-11T03:50:04.291Z,80.98
2016-08-11T03:51:04.249Z,80.79
2016-08-11T03:52:04.231Z,81.07
2016-08-11T03:53:04.201Z,80.88
2016-08-11T03:54:04.175Z,80.98
2016-08-11T03:55:04.145Z,80.98
2016-08-11T03:56:04.118Z,81.36
2016-08-11T03:57:04.095Z,81.26
2016-08-11T03:58:04.070Z,81.07
2016-08-11T03:59:04.051Z,81.55
2016-08-11T04:00:04.016Z,81.36
2016-08-11T04:01:03.986Z,81.26
2016-08-11T04:02:03.961Z,81.26
2016-08-11T04:03:03.935Z,81.36
2016-08-11T04:04:03.910Z,81.26
2016-08-11T04:05:04.576Z,81.46
2016-08-11T04:06:03.859Z,81.36
2016-08-11T04:07:03.830Z,81.07
2016-08-11T04:08:03.802Z,81.07
2016-08-11T04:09:03.786Z,81.17
2016-08-11T04:10:03.756Z,81.17
2016-08-11T04:11:03.725Z,81.55
2016-08-11T04:12:03.696Z,81.17
2016-08-11T04:13:03.674Z,81.26
2016-08-11T04:14:03.647Z,81.07
2016-08-11T04:15:03.623Z,81.17
2016-08-11T04:16:03.594Z,81.26
2016-08-11T04:17:03.568Z,81.17
2016-08-11T04:18:03.547Z,81.17
2016-08-11T04:19:03.517Z,81.36
2016-08-11T04:20:03.488Z,81.74
2016-08-11T04:21:03.463Z,81.17
2016-08-11T04:22:03.435Z,81.55
2016-08-11T04:23:03.432Z,81.55
2016-08-11T04:24:03.385Z,81.55
2016-08-11T04:25:03.363Z,81.55
2016-08-11T04:26:03.333Z,81.65
2016-08-11T04:27:03.306Z,81.65
2016-08-11T04:28:03.278Z,81.46
2016-08-11T04:30:03.229Z,81.26
2016-08-11T04:31:03.206Z,81.46
2016-08-11T04:32:03.175Z,81.65
2016-08-11T04:33:03.149Z,81.26
2016-08-11T04:34:03.120Z,81.46
2016-08-11T04:35:03.098Z,81.26
2016-08-11T04:36:03.072Z,81.26
2016-08-11T04:37:03.045Z,81.26
2016-08-11T04:38:03.017Z,81.36
2016-08-11T04:39:02.994Z,81.46
2016-08-11T04:40:02.967Z,81.55
2016-08-11T04:41:02.940Z,81.65
2016-08-11T04:42:02.915Z,81.46
2016-08-11T04:43:02.983Z,81.55
2016-08-11T04:44:02.863Z,81.65
2016-08-11T04:45:03.268Z,81.65
2016-08-11T04:46:02.951Z,81.46
2016-08-11T04:47:02.783Z,81.36
2016-08-11T04:48:02.771Z,81.36
2016-08-11T04:49:02.729Z,81.26
2016-08-11T04:50:02.705Z,81.26
2016-08-11T04:51:02.686Z,80.98
2016-08-11T04:52:02.655Z,80.98
2016-08-11T04:53:03.466Z,80.79
2016-08-11T04:54:02.605Z,81.02
2016-08-11T04:55:02.578Z,81.17
2016-08-11T04:56:02.550Z,80.54
2016-08-11T04:57:02.528Z,80.73
2016-08-11T04:58:02.503Z,80.54
2016-08-11T05:00:02.452Z,80.16
2016-08-11T05:01:02.425Z,80.26
2016-08-11T05:02:02.398Z,79.88
2016-08-11T05:03:02.371Z,80.64
2016-08-11T05:04:02.347Z,80.54
2016-08-11T05:05:02.323Z,80.44
2016-08-11T05:06:02.298Z,80.07
2016-08-11T05:07:02.277Z,79.88
2016-08-11T05:08:02.901Z,80.26
2016-08-11T05:09:02.222Z,80.35
2016-08-11T05:10:02.198Z,79.97
2016-08-11T05:11:02.170Z,79.88
2016-08-11T05:12:02.146Z,79.59
2016-08-11T05:13:02.128Z,79.49
2016-08-11T05:15:02.532Z,79.4
2016-08-11T05:16:02.043Z,79.21
2016-08-11T05:17:02.458Z,79.49
2016-08-11T05:18:02.006Z,79.68
2016-08-11T05:19:01.969Z,79.44
2016-08-11T05:20:01.943Z,78.86
2016-08-11T05:21:01.919Z,78.92
2016-08-11T05:22:01.914Z,78.96
2016-08-11T05:23:01.869Z,78.86
2016-08-11T05:24:01.845Z,78.77
2016-08-11T05:25:01.819Z,79.15
2016-08-11T05:26:01.938Z,78.77
2016-08-11T05:27:01.769Z,78.58
2016-08-11T05:28:01.744Z,78.77
2016-08-11T05:30:01.833Z,78.39
2016-08-11T05:31:01.674Z,78.1
2016-08-11T05:32:01.648Z,78.1
2016-08-11T05:33:02.019Z,78.1
2016-08-11T05:34:01.599Z,78.2
2016-08-11T05:35:01.575Z,77.82
2016-08-11T05:36:01.556Z,77.72
2016-08-11T05:37:01.529Z,77.25
2016-08-11T05:38:01.500Z,77.15
2016-08-11T05:39:01.477Z,77.38
2016-08-11T05:40:01.450Z,77
2016-08-11T05:41:01.434Z,77.09
2016-08-11T05:42:01.415Z,76.42
2016-08-11T05:43:01.383Z,76.42
2016-08-11T05:45:01.331Z,76.62
2016-08-11T05:46:01.310Z,76.14
2016-08-11T05:47:01.285Z,75.95
2016-08-11T05:48:01.261Z,75.95
2016-08-11T05:49:01.237Z,76.23
2016-08-11T05:50:01.210Z,75.85
2016-08-11T05:51:01.187Z,75.47
2016-08-11T05:52:01.163Z,75.66
2016-08-11T05:53:01.141Z,75.47
2016-08-11T05:54:01.117Z,75.22
2016-08-11T05:55:01.094Z,74.9
2016-08-11T05:56:01.070Z,74.74
2016-08-11T05:57:01.047Z,75.03
2016-08-11T05:58:01.024Z,74.46
2016-08-11T05:59:01.000Z,74.27
2016-08-11T06:00:00.981Z,74.37
2016-08-11T06:01:00.960Z,74.27
2016-08-11T06:02:00.937Z,73.98
2016-08-11T06:03:00.907Z,73.79
2016-08-11T06:04:00.883Z,74.08
2016-08-11T06:05:00.867Z,73.6
2016-08-11T06:06:00.835Z,73.5
2016-08-11T06:07:00.812Z,73.6
2016-08-11T06:08:00.791Z,73.22
2016-08-11T06:09:00.888Z,73.41
2016-08-11T06:10:00.744Z,73.32
2016-08-11T06:11:00.723Z,73.03
2016-08-11T06:12:00.729Z,72.83
2016-08-11T06:13:00.783Z,72.83
2016-08-11T06:14:00.706Z,73.12
2016-08-11T06:15:00.630Z,72.93
2016-08-11T06:16:00.604Z,72.55
2016-08-11T06:17:00.581Z,73.35
2016-08-11T06:18:00.561Z,72.78
2016-08-11T06:19:00.536Z,72.97
2016-08-11T06:20:00.512Z,72.87
2016-08-11T06:21:00.490Z,72.78
2016-08-11T06:22:00.478Z,72.3
2016-08-11T06:23:00.443Z,72.2
2016-08-11T06:24:00.419Z,72.3
2016-08-11T06:25:00.395Z,72.11
2016-08-11T06:26:00.701Z,72.49
2016-08-11T06:27:00.353Z,72.3
2016-08-11T06:28:00.328Z,71.82
2016-08-11T06:29:00.306Z,71.92
2016-08-11T06:30:00.285Z,71.53
2016-08-11T06:31:00.259Z,71.34
2016-08-11T06:32:00.246Z,71.72
2016-08-11T06:33:00.219Z,71.25
2016-08-11T06:34:00.198Z,71.09
2016-08-11T06:35:00.170Z,70.9
2016-08-11T06:36:00.148Z,71.19
2016-08-11T06:37:00.126Z,71.09
2016-08-11T06:38:00.105Z,71.09
2016-08-11T06:39:00.082Z,70.9
2016-08-11T06:40:00.062Z,70.52
2016-08-11T06:41:00.040Z,70.23
2016-08-11T06:42:00.018Z,70.23
2016-08-11T06:43:00.004Z,69.76
2016-08-11T06:43:59.973Z,69.76
2016-08-11T06:45:00.215Z,69.98
2016-08-11T06:45:59.931Z,69.6
2016-08-11T06:46:59.911Z,69.21
2016-08-11T06:47:59.912Z,69.12
2016-08-11T06:48:59.865Z,69.21
2016-08-11T06:49:59.841Z,68.74
2016-08-11T06:50:59.823Z,68.45
2016-08-11T06:51:59.847Z,68.93
2016-08-11T06:52:59.876Z,68.07
2016-08-11T06:53:59.764Z,68.45
2016-08-11T06:54:59.897Z,68.26
2016-08-11T06:55:59.817Z,68.35
2016-08-11T06:56:59.694Z,67.88
2016-08-11T06:57:59.673Z,67.78
2016-08-11T06:58:59.676Z,67.49
2016-08-11T06:59:59.629Z,67.59
2016-08-11T07:00:59.610Z,67.69
2016-08-11T07:01:59.598Z,67.59
2016-08-11T07:03:00.026Z,67.59
2016-08-11T07:03:59.552Z,66.92
2016-08-11T07:04:59.532Z,67.14
2016-08-11T07:05:59.661Z,66.92
2016-08-11T07:06:59.548Z,66.76
2016-08-11T07:07:59.656Z,67.05
2016-08-11T07:08:59.879Z,66.47
2016-08-11T07:09:59.613Z,66.38
2016-08-11T07:11:00.131Z,66.57
2016-08-11T07:11:59.558Z,66.28
2016-08-11T07:12:59.371Z,66.09
2016-08-11T07:13:59.337Z,65.81
2016-08-11T07:14:59.314Z,65.9
2016-08-11T07:15:59.302Z,66
2016-08-11T07:16:59.440Z,65.42
2016-08-11T07:18:00.010Z,65.23
2016-08-11T07:18:59.255Z,65.04
2016-08-11T07:19:59.716Z,64.98
2016-08-11T07:20:59.420Z,65.08
2016-08-11T07:21:59.337Z,64.22
2016-08-11T07:22:59.152Z,64.12
2016-08-11T07:23:59.868Z,63.83
2016-08-11T07:24:59.148Z,63.45
2016-08-11T07:25:59.098Z,63.73
2016-08-11T07:26:59.251Z,64.22
2016-08-11T07:27:59.186Z,63.93
2016-08-11T07:28:59.080Z,63.57
2016-08-11T07:29:59.016Z,63.57
2016-08-11T07:30:59.009Z,63.29
2016-08-11T07:31:59.154Z,63.19
2016-08-11T07:32:58.951Z,62.9
2016-08-11T07:33:58.934Z,63.19
2016-08-11T07:34:58.913Z,63.1
2016-08-11T07:35:58.966Z,62.43
2016-08-11T07:36:58.918Z,62.33
2016-08-11T07:37:58.854Z,62.33
2016-08-11T07:38:58.835Z,62.23
2016-08-11T07:39:58.814Z,62.81
2016-08-11T07:40:58.794Z,62.71
2016-08-11T07:41:58.774Z,62.52
2016-08-11T07:42:58.756Z,62.52
2016-08-11T07:43:58.778Z,62.33
2016-08-11T07:44:58.717Z,62.14
2016-08-11T07:45:58.734Z,62.14
2016-08-11T07:46:58.681Z,61.94
2016-08-11T07:47:58.769Z,61.66
2016-08-11T07:48:58.637Z,61.69
2016-08-11T07:49:58.645Z,61.88
2016-08-11T07:50:58.602Z,61.69
2016-08-11T07:51:59.033Z,61.88
2016-08-11T07:52:58.559Z,61.5
2016-08-11T07:53:58.616Z,61.21
2016-08-11T07:54:58.516Z,60.93
2016-08-11T07:55:58.499Z,61.4
2016-08-11T07:56:58.685Z,61.4
2016-08-11T07:57:58.516Z,60.83
2016-08-11T07:58:58.442Z,61.02
2016-08-11T07:59:58.515Z,61.5
2016-08-11T08:00:58.548Z,60.64
2016-08-11T08:01:58.381Z,60.54
2016-08-11T08:02:58.361Z,60.64
2016-08-11T08:03:58.343Z,60.35
2016-08-11T08:04:58.329Z,60.64
2016-08-11T08:05:59.007Z,60.54
2016-08-11T08:06:58.394Z,60.64
2016-08-11T08:07:58.799Z,60.35
2016-08-11T08:08:58.742Z,60.25
2016-08-11T08:09:58.226Z,59.97
2016-08-11T08:10:58.234Z,60.06
2016-08-11T08:11:58.917Z,60.25
2016-08-11T08:12:58.173Z,59.77
2016-08-11T08:13:58.151Z,59.87
2016-08-11T08:14:58.217Z,59.68
2016-08-11T08:15:58.122Z,59.52
2016-08-11T08:16:58.906Z,59.52
2016-08-11T08:17:58.078Z,59.23
2016-08-11T08:18:58.137Z,59.23
2016-08-11T08:19:58.039Z,59.04
2016-08-11T08:20:58.020Z,58.75
2016-08-11T08:21:58.004Z,58.94
2016-08-11T08:22:57.994Z,58.94
2016-08-11T08:23:57.971Z,58.56
2016-08-11T08:24:57.947Z,58.27
2016-08-11T08:25:58.622Z,57.98
2016-08-11T08:26:58.038Z,58.27
2016-08-11T08:27:57.892Z,57.79
2016-08-11T08:28:58.077Z,57.98
2016-08-11T08:29:58.141Z,57.79
2016-08-11T08:30:57.958Z,57.92
2016-08-11T08:31:57.831Z,57.72
2016-08-11T08:32:58.010Z,57.34
2016-08-11T08:33:57.989Z,57.43
2016-08-11T08:34:57.765Z,57.53
2016-08-11T08:35:57.953Z,56.96
2016-08-11T08:36:58.500Z,56.96
2016-08-11T08:37:57.724Z,56.67
2016-08-11T08:38:57.951Z,56.48
2016-08-11T08:39:57.857Z,56.48
2016-08-11T08:40:57.904Z,56.57
2016-08-11T08:41:57.649Z,56.48
2016-08-11T08:42:58.576Z,56.12
2016-08-11T08:43:57.705Z,56.02
2016-08-11T08:44:58.043Z,56.31
2016-08-11T08:45:57.570Z,55.83
2016-08-11T08:46:57.678Z,55.55
2016-08-11T08:47:58.272Z,55.55
2016-08-11T08:48:58.741Z,55.93
2016-08-11T08:49:58.480Z,55.74
2016-08-11T08:50:57.479Z,55.83
2016-08-11T08:51:57.469Z,55.26
2016-08-11T08:52:57.851Z,54.97
2016-08-11T08:53:57.723Z,55.26
2016-08-11T08:54:57.474Z,54.78
2016-08-11T08:55:57.441Z,54.97
2016-08-11T08:56:57.376Z,54.39
2016-08-11T08:57:57.369Z,54.58
2016-08-11T08:58:57.566Z,54.11
2016-08-11T08:59:57.326Z,54.3
2016-08-11T09:00:57.312Z,54.3
2016-08-11T09:01:57.299Z,54.11
2016-08-11T09:02:57.279Z,54.49
2016-08-11T09:03:57.320Z,53.91
2016-08-11T09:04:57.603Z,53.91
2016-08-11T09:05:57.365Z,54.23
2016-08-11T09:06:57.596Z,53.44
2016-08-11T09:07:57.193Z,53.15
2016-08-11T09:08:57.230Z,53.27
2016-08-11T09:09:57.152Z,53.08
2016-08-11T09:10:57.214Z,52.69
2016-08-11T09:11:57.122Z,53.08
2016-08-11T09:12:57.103Z,52.89
2016-08-11T09:13:57.089Z,52.5
2016-08-11T09:14:57.326Z,52.5
2016-08-11T09:15:57.066Z,52.24
2016-08-11T09:16:57.066Z,51.73
2016-08-11T09:17:57.284Z,51.67
2016-08-11T09:18:57.039Z,51.57
2016-08-11T09:19:57.949Z,51.28
2016-08-11T09:20:56.980Z,50.9
2016-08-11T09:21:57.003Z,50.61
2016-08-11T09:22:57.143Z,50.8
2016-08-11T09:23:57.882Z,51.21
2016-08-11T09:24:58.006Z,50.82
2016-08-11T09:25:56.891Z,50.44
2016-08-11T09:26:56.888Z,50.73
2016-08-11T09:27:56.960Z,50.54
2016-08-11T09:28:57.179Z,50.44
2016-08-11T09:29:57.055Z,50.15
2016-08-11T09:30:57.015Z,50.15
2016-08-11T09:31:57.013Z,49.96
2016-08-11T09:32:56.835Z,50.15
2016-08-11T09:33:56.934Z,49.96
2016-08-11T09:34:56.916Z,49.57
2016-08-11T09:35:57.539Z,49.29
2016-08-11T09:36:56.860Z,49.29
2016-08-11T09:37:57.024Z,48.83
2016-08-11T09:38:56.809Z,48.83
2016-08-11T09:39:56.866Z,48.64
2016-08-11T09:40:56.656Z,48.83
2016-08-11T09:41:56.686Z,48.18
2016-08-11T09:42:56.678Z,48.18
2016-08-11T09:43:56.667Z,47.8
2016-08-11T09:44:56.755Z,47.41
2016-08-11T09:45:56.589Z,47.61
2016-08-11T09:46:56.564Z,46.84
2016-08-11T09:47:57.246Z,46.84
2016-08-11T09:48:56.534Z,46.26
2016-08-11T09:49:56.525Z,46.36
2016-08-11T09:50:57.362Z,46.09
2016-08-11T09:51:57.621Z,46.28
2016-08-11T09:52:57.404Z,45.7
2016-08-11T09:53:56.643Z,45.61
2016-08-11T09:54:56.446Z,45.68
2016-08-11T09:55:56.430Z,45.39
2016-08-11T09:56:56.416Z,45.78
2016-08-11T09:57:56.440Z,45.68
2016-08-11T09:58:56.393Z,45.32
2016-08-11T09:59:56.376Z,45.22
2016-08-11T10:00:56.359Z,45.22
2016-08-11T10:01:56.342Z,44.93
2016-08-11T10:02:56.327Z,45.13
2016-08-11T10:03:56.323Z,44.93
2016-08-11T10:04:56.371Z,44.93
2016-08-11T10:05:57.148Z,44.93
2016-08-11T10:06:56.714Z,44.93
2016-08-11T10:07:56.254Z,45.03
2016-08-11T10:08:56.242Z,45.03
2016-08-11T10:09:56.536Z,44.93
2016-08-11T10:10:56.211Z,45.13
2016-08-11T10:11:56.218Z,44.84
2016-08-11T10:12:56.190Z,44.86
2016-08-11T10:13:56.173Z,44.74
2016-08-11T10:14:56.495Z,44.86
2016-08-11T10:15:56.188Z,44.67
2016-08-11T10:16:56.140Z,44.35
2016-08-11T10:17:56.715Z,44.35
2016-08-11T10:18:56.368Z,44.35
2016-08-11T10:19:56.274Z,44.35
2016-08-11T10:20:56.167Z,44.17
2016-08-11T10:21:56.054Z,44.35
2016-08-11T10:22:56.037Z,44.17
2016-08-11T10:23:56.025Z,44.07
2016-08-11T10:24:56.017Z,44.17
2016-08-11T10:25:56.001Z,43.68
2016-08-11T10:26:56.138Z,43.59
2016-08-11T10:27:56.127Z,43.59
2016-08-11T10:28:56.023Z,43.59
2016-08-11T10:29:55.935Z,43.59
2016-08-11T10:30:56.785Z,43.59
2016-08-11T10:31:56.120Z,43.59
2016-08-11T10:32:56.245Z,43.88
2016-08-11T10:33:55.890Z,43.78
2016-08-11T10:34:56.561Z,43.78
2016-08-11T10:35:55.851Z,44.05
2016-08-11T10:36:55.991Z,44.14
2016-08-11T10:37:55.816Z,44.53
2016-08-11T10:38:55.807Z,44.43
2016-08-11T10:39:55.785Z,44.53
2016-08-11T10:40:55.770Z,44.53
2016-08-11T10:41:55.755Z,44.62
2016-08-11T10:42:55.739Z,44.89
2016-08-11T10:43:56.413Z,44.79
2016-08-11T10:44:55.709Z,44.7
2016-08-11T10:45:55.708Z,44.79
2016-08-11T10:46:55.681Z,44.91
2016-08-11T10:47:55.659Z,44.82
2016-08-11T10:48:55.643Z,44.99
2016-08-11T10:49:55.634Z,44.99
2016-08-11T10:50:55.614Z,44.99
2016-08-11T10:51:55.597Z,44.99
2016-08-11T10:52:55.582Z,44.82
2016-08-11T10:53:55.571Z,44.91
2016-08-11T10:54:55.550Z,44.82
2016-08-11T10:55:55.537Z,45.01
2016-08-11T10:56:55.522Z,44.91
2016-08-11T10:57:55.518Z,44.82
2016-08-11T10:58:55.489Z,45.1
2016-08-11T11:00:55.460Z,45.39
2016-08-11T11:01:55.555Z,45.29
2016-08-11T11:02:55.818Z,45.78
2016-08-11T11:03:55.415Z,45.59
2016-08-11T11:04:55.556Z,45.68
2016-08-11T11:05:55.383Z,45.49
2016-08-11T11:06:55.383Z,45.49
2016-08-11T11:07:55.356Z,45.59
2016-08-11T11:08:55.337Z,45.29
2016-08-11T11:09:55.591Z,45.39
2016-08-11T11:10:55.308Z,45.39
2016-08-11T11:11:55.296Z,45.39
2016-08-11T11:12:56.632Z,45.39
2016-08-11T11:13:55.424Z,45.68
2016-08-11T11:15:56.496Z,45.68
2016-08-11T11:16:55.486Z,45.22
2016-08-11T11:17:55.203Z,45.13
2016-08-11T11:18:55.314Z,45.13
2016-08-11T11:19:56.035Z,45.22
2016-08-11T11:20:55.282Z,45.42
2016-08-11T11:21:56.328Z,45.42
2016-08-11T11:22:55.636Z,45.29
2016-08-11T11:23:55.650Z,45.22
2016-08-11T11:24:55.501Z,45.2
2016-08-11T11:25:55.085Z,45.22
2016-08-11T11:26:55.552Z,45.22
2016-08-11T11:27:55.238Z,44.93
2016-08-11T11:28:55.170Z,44.84
2016-08-11T11:30:55.310Z,44.93
2016-08-11T11:31:55.214Z,45.03
2016-08-11T11:32:55.110Z,45.03
2016-08-11T11:33:55.302Z,44.84
2016-08-11T11:34:55.393Z,45.03
2016-08-11T11:35:56.177Z,45.13
2016-08-11T11:36:55.470Z,45.13
2016-08-11T11:37:55.177Z,45.13
2016-08-11T11:38:55.339Z,45.22
2016-08-11T11:39:55.167Z,44.35
2016-08-11T11:40:55.709Z,44.48
2016-08-11T11:41:55.243Z,44.48
2016-08-11T11:42:55.170Z,44.38
2016-08-11T11:43:55.198Z,44.38
2016-08-11T11:45:55.314Z,44.48
2016-08-11T11:46:55.174Z,44.38
2016-08-11T11:47:55.131Z,44.48
2016-08-11T11:48:55.151Z,44.38
2016-08-11T11:49:55.783Z,44.57
2016-08-11T11:50:56.314Z,44.57
2016-08-11T11:51:55.481Z,44.48
2016-08-11T11:52:55.070Z,44.38
2016-08-11T11:53:55.389Z,44.38
2016-08-11T11:54:55.060Z,44.74
2016-08-11T11:55:54.729Z,44.67
2016-08-11T11:56:55.228Z,45.13
2016-08-11T11:57:55.343Z,44.93
2016-08-11T11:58:54.964Z,44.74
2016-08-11T11:59:54.973Z,44.55
2016-08-11T12:00:54.712Z,45.13
2016-08-11T12:01:55.339Z,45.22
2016-08-11T12:02:54.684Z,45.42
2016-08-11T12:03:54.679Z,46.28
2016-08-11T12:04:54.971Z,46.06
2016-08-11T12:05:54.960Z,46.45
2016-08-11T12:06:54.828Z,46.36
2016-08-11T12:07:55.024Z,46.45
2016-08-11T12:08:54.723Z,47.51
2016-08-11T12:09:54.600Z,47.41
2016-08-11T12:10:54.549Z,47.31
2016-08-11T12:11:54.536Z,47.03
2016-08-11T12:12:54.517Z,47.22
2016-08-11T12:13:54.499Z,47.51
2016-08-11T12:14:54.336Z,47.41
2016-08-11T12:15:54.649Z,47.22
2016-08-11T12:16:54.302Z,47.41
2016-08-11T12:17:54.336Z,47.89
2016-08-11T12:18:54.314Z,48.08
2016-08-11T12:19:54.252Z,48.08
2016-08-11T12:20:54.235Z,48.83
2016-08-11T12:21:54.216Z,48.93
2016-08-11T12:22:54.203Z,48.93
2016-08-11T12:23:54.209Z,48.93
2016-08-11T12:24:54.185Z,49.38
2016-08-11T12:25:54.676Z,49.19
2016-08-11T12:26:54.701Z,49.57
2016-08-11T12:27:54.305Z,49.67
2016-08-11T12:28:54.244Z,50.05
2016-08-11T12:29:54.411Z,49.96
2016-08-11T12:30:54.206Z,50.05
2016-08-11T12:31:54.424Z,49.87
2016-08-11T12:32:54.379Z,49.87
2016-08-11T12:33:54.346Z,50.15
2016-08-11T12:34:54.328Z,50.54
2016-08-11T12:35:54.120Z,50.54
2016-08-11T12:36:54.098Z,50.44
2016-08-11T12:37:55.344Z,50.44
2016-08-11T12:38:53.929Z,50.63
2016-08-11T12:39:53.897Z,51.11
2016-08-11T12:40:53.879Z,51.11
2016-08-11T12:41:54.532Z,50.92
2016-08-11T12:42:53.978Z,51.67
2016-08-11T12:43:54.523Z,52.34
2016-08-11T12:44:54.583Z,53.39
2016-08-11T12:45:54.625Z,53.11
2016-08-11T12:46:54.377Z,52.91
2016-08-11T12:47:54.311Z,53.01
2016-08-11T12:48:54.445Z,52.34
2016-08-11T12:49:54.527Z,52.43
2016-08-11T12:50:54.288Z,52.43
2016-08-11T12:51:54.677Z,52.24
2016-08-11T12:52:54.282Z,52.24
2016-08-11T12:53:54.267Z,52.46
2016-08-11T12:54:54.354Z,52.34
2016-08-11T12:55:54.221Z,52.17
2016-08-11T12:56:53.786Z,52.17
2016-08-11T12:57:53.820Z,52.46
2016-08-11T12:58:54.072Z,51.98
2016-08-11T12:59:53.958Z,51.79
2016-08-11T13:00:53.812Z,51.69
2016-08-11T13:01:53.520Z,51.69
2016-08-11T13:02:53.498Z,51.59
2016-08-11T13:03:53.478Z,51.59